createdAt,value
2022-11-13T00:02:38.108Z,12.00
2022-11-13T00:05:24.205Z,11.99
2022-11-13T00:08:09.715Z,11.99
2022-11-13T00:11:02.146Z,11.95
2022-11-13T00:13:48.086Z,11.55
2022-11-13T00:16:33.621Z,11.63
2022-11-13T00:19:19.558Z,11.68
2022-11-13T00:22:05.706Z,11.65
2022-11-13T00:24:51.376Z,11.66
2022-11-13T00:27:37.300Z,11.59
2022-11-13T00:30:23.313Z,11.43
2022-11-13T00:33:08.717Z,11.27
2022-11-13T00:35:54.690Z,11.24
2022-11-13T00:38:40.582Z,11.54
2022-11-13T00:41:26.553Z,11.50
2022-11-13T00:44:12.097Z,11.46
2022-11-13T00:46:57.760Z,11.57
2022-11-13T00:49:43.250Z,11.34
2022-11-13T00:52:29.045Z,11.30
2022-11-13T00:55:14.659Z,11.21
2022-11-13T00:58:00.535Z,11.35
2022-11-13T01:00:46.711Z,11.37
2022-11-13T01:03:32.236Z,11.13
2022-11-13T01:06:19.766Z,11.29
2022-11-13T01:09:05.324Z,11.25
2022-11-13T01:11:51.052Z,10.94
2022-11-13T01:14:36.528Z,10.84
2022-11-13T01:17:22.415Z,11.09
2022-11-13T01:20:08.403Z,11.05
2022-11-13T01:22:53.953Z,11.16
2022-11-13T01:25:39.543Z,11.12
2022-11-13T01:28:25.401Z,11.32
2022-11-13T01:31:15.286Z,11.35
2022-11-13T01:34:00.952Z,11.29
2022-11-13T01:36:47.020Z,11.34
2022-11-13T01:39:32.875Z,11.28
2022-11-13T01:42:18.466Z,11.28
2022-11-13T01:45:04.332Z,11.11
2022-11-13T01:47:50.122Z,11.34
2022-11-13T01:50:35.988Z,11.26
2022-11-13T01:53:21.516Z,11.30
2022-11-13T01:56:07.662Z,11.00
2022-11-13T01:58:55.529Z,10.96
2022-11-13T02:01:41.340Z,11.15
2022-11-13T02:04:27.235Z,11.01
2022-11-13T02:07:16.881Z,11.01
2022-11-13T02:10:02.632Z,10.65
2022-11-13T02:12:51.744Z,10.68
2022-11-13T02:15:37.326Z,10.71
2022-11-13T02:18:23.007Z,10.38
2022-11-13T02:21:11.307Z,10.60
2022-11-13T02:24:02.807Z,10.53
2022-11-13T02:26:49.449Z,10.55
2022-11-13T02:29:35.143Z,10.71
2022-11-13T02:32:21.330Z,10.54
2022-11-13T02:35:07.183Z,10.68
2022-11-13T02:37:53.059Z,10.63
2022-11-13T02:40:39.542Z,10.47
2022-11-13T02:43:25.346Z,10.59
2022-11-13T02:46:11.176Z,10.63
2022-11-13T02:48:56.762Z,10.61
2022-11-13T02:51:42.555Z,10.65
2022-11-13T02:54:28.333Z,10.56
2022-11-13T02:57:14.058Z,10.72
2022-11-13T02:59:59.886Z,10.85
2022-11-13T03:02:45.644Z,10.96
2022-11-13T03:05:31.207Z,10.77
2022-11-13T03:08:17.865Z,10.85
2022-11-13T03:11:06.830Z,10.76
2022-11-13T03:13:53.141Z,10.57
2022-11-13T03:16:38.898Z,10.52
2022-11-13T03:19:24.593Z,10.75
2022-11-13T03:22:10.295Z,10.70
2022-11-13T03:24:55.853Z,10.70
2022-11-13T03:27:41.727Z,10.69
2022-11-13T03:30:28.036Z,10.40
2022-11-13T03:33:13.882Z,10.69
2022-11-13T03:35:59.256Z,10.88
2022-11-13T03:38:45.093Z,10.85
2022-11-13T03:41:30.909Z,10.95
2022-11-13T03:44:16.711Z,10.98
2022-11-13T03:47:02.391Z,10.99
2022-11-13T03:49:48.094Z,11.00
2022-11-13T03:52:33.706Z,10.87
2022-11-13T03:55:19.740Z,11.03
2022-11-13T03:58:05.614Z,11.01
2022-11-13T04:00:51.260Z,10.83
2022-11-13T04:03:36.824Z,10.94
2022-11-13T04:06:22.572Z,11.13
2022-11-13T04:09:08.239Z,10.91
2022-11-13T04:11:53.971Z,10.44
2022-11-13T04:14:39.611Z,10.62
2022-11-13T04:17:25.375Z,10.56
2022-11-13T04:20:11.385Z,10.53
2022-11-13T04:22:57.125Z,10.47
2022-11-13T04:25:42.845Z,10.46
2022-11-13T04:28:29.014Z,10.42
2022-11-13T04:31:14.780Z,10.38
2022-11-13T04:34:00.905Z,10.44
2022-11-13T04:36:46.539Z,10.41
2022-11-13T04:39:32.207Z,10.21
2022-11-13T04:42:36.155Z,9.96
2022-11-13T04:45:22.887Z,10.18
2022-11-13T04:48:08.494Z,10.11
2022-11-13T04:50:54.392Z,10.13
2022-11-13T04:53:40.053Z,10.12
2022-11-13T04:56:25.671Z,10.31
2022-11-13T04:59:11.368Z,10.40
2022-11-13T05:01:57.140Z,10.41
2022-11-13T05:04:43.105Z,10.40
2022-11-13T05:07:29.604Z,10.37
2022-11-13T05:10:15.400Z,10.38
2022-11-13T05:13:01.336Z,10.17
2022-11-13T05:15:46.838Z,10.10
2022-11-13T05:18:32.816Z,10.35
2022-11-13T05:21:18.779Z,10.38
2022-11-13T05:24:04.407Z,10.42
2022-11-13T05:26:50.211Z,10.42
2022-11-13T05:29:36.120Z,10.41
2022-11-13T05:32:21.694Z,10.54
2022-11-13T05:35:07.336Z,10.45
2022-11-13T05:37:52.865Z,10.22
2022-11-13T05:40:38.712Z,10.51
2022-11-13T05:43:24.372Z,10.69
2022-11-13T05:46:13.971Z,10.76
2022-11-13T05:49:00.641Z,10.44
2022-11-13T05:51:46.485Z,10.72
2022-11-13T05:54:32.155Z,10.77
2022-11-13T05:57:17.931Z,10.78
2022-11-13T06:00:04.189Z,10.77
2022-11-13T06:02:49.790Z,10.77
2022-11-13T06:05:35.747Z,10.74
2022-11-13T06:08:21.482Z,10.85
2022-11-13T06:11:08.859Z,10.83
2022-11-13T06:13:55.016Z,10.85
2022-11-13T06:16:40.947Z,10.88
2022-11-13T06:19:26.751Z,10.71
2022-11-13T06:22:12.623Z,10.63
2022-11-13T06:24:58.045Z,10.64
2022-11-13T06:27:43.643Z,10.54
2022-11-13T06:30:29.111Z,10.45
2022-11-13T06:33:14.953Z,10.82
2022-11-13T06:36:04.341Z,10.91
2022-11-13T06:38:50.256Z,10.68
2022-11-13T06:41:37.743Z,11.04
2022-11-13T06:44:23.351Z,11.00
2022-11-13T06:47:09.601Z,11.13
2022-11-13T06:49:55.265Z,11.17
2022-11-13T06:52:40.938Z,11.10
2022-11-13T06:55:26.609Z,11.29
2022-11-13T06:58:12.879Z,11.23
2022-11-13T07:00:58.550Z,11.28
2022-11-13T07:03:44.425Z,11.49
2022-11-13T07:06:30.386Z,11.48
2022-11-13T07:09:15.980Z,11.75
2022-11-13T07:12:01.941Z,11.87
2022-11-13T07:14:47.521Z,11.93
2022-11-13T07:17:33.137Z,11.98
2022-11-13T07:20:18.769Z,12.03
2022-11-13T07:23:04.798Z,12.21
2022-11-13T07:25:52.680Z,12.13
2022-11-13T07:28:38.710Z,12.00
2022-11-13T07:31:24.440Z,12.26
2022-11-13T07:34:10.224Z,12.24
2022-11-13T07:36:55.748Z,12.46
2022-11-13T07:39:41.543Z,12.67
2022-11-13T07:42:27.263Z,12.77
2022-11-13T07:45:13.057Z,12.57
2022-11-13T07:47:59.398Z,12.93
2022-11-13T07:50:45.138Z,13.08
2022-11-13T07:53:30.650Z,13.00
2022-11-13T07:56:21.782Z,13.14
2022-11-13T07:59:08.569Z,13.04
2022-11-13T08:01:54.334Z,13.32
2022-11-13T08:04:39.903Z,13.45
2022-11-13T08:07:25.889Z,13.49
2022-11-13T08:10:11.896Z,13.65
2022-11-13T08:13:02.063Z,13.66
2022-11-13T08:15:48.070Z,13.50
2022-11-13T08:18:33.675Z,13.48
2022-11-13T08:21:21.119Z,13.65
2022-11-13T08:24:07.097Z,13.80
2022-11-13T08:26:52.406Z,14.17
2022-11-13T08:29:38.210Z,13.83
2022-11-13T08:32:24.079Z,14.21
2022-11-13T08:35:09.831Z,14.42
2022-11-13T08:37:55.692Z,14.59
2022-11-13T08:40:41.144Z,14.84
2022-11-13T08:43:27.362Z,14.64
2022-11-13T08:46:12.987Z,15.01
2022-11-13T08:48:58.850Z,15.09
2022-11-13T08:51:44.410Z,15.23
2022-11-13T08:54:30.230Z,15.30
2022-11-13T08:57:16.026Z,15.10
2022-11-13T09:00:02.219Z,15.14
2022-11-13T09:02:47.760Z,15.07
2022-11-13T09:05:33.624Z,15.09
2022-11-13T09:08:19.070Z,15.28
2022-11-13T09:11:05.206Z,15.26
2022-11-13T09:13:53.567Z,14.88
2022-11-13T09:16:39.916Z,15.28
2022-11-13T09:19:25.773Z,15.70
2022-11-13T09:22:11.749Z,15.79
2022-11-13T09:24:57.371Z,16.01
2022-11-13T09:27:43.136Z,16.39
2022-11-13T09:30:29.224Z,16.74
2022-11-13T09:33:15.514Z,16.93
2022-11-13T09:36:01.410Z,17.31
2022-11-13T09:38:47.193Z,17.80
2022-11-13T09:41:38.317Z,18.11
2022-11-13T09:44:42.978Z,19.45
2022-11-13T09:47:30.922Z,19.77
2022-11-13T09:50:18.225Z,20.31
2022-11-13T09:53:03.991Z,20.02
2022-11-13T09:55:57.153Z,19.37
2022-11-13T09:58:42.852Z,19.29
2022-11-13T10:01:33.973Z,19.17
2022-11-13T10:04:23.455Z,19.38
2022-11-13T10:07:12.598Z,18.90
2022-11-13T10:10:01.238Z,19.94
2022-11-13T10:12:47.159Z,20.77
2022-11-13T10:15:33.142Z,20.87
2022-11-13T10:18:20.718Z,20.74
2022-11-13T10:21:25.546Z,20.41
2022-11-13T10:24:22.635Z,20.50
2022-11-13T10:27:09.074Z,20.32
2022-11-13T10:29:54.715Z,19.64
2022-11-13T10:32:40.201Z,19.32
2022-11-13T10:35:38.349Z,19.29
2022-11-13T10:38:39.288Z,19.38
2022-11-13T10:41:24.784Z,18.53
2022-11-13T10:44:20.966Z,18.21
2022-11-13T10:47:56.889Z,18.21
2022-11-13T10:50:32.608Z,18.28
2022-11-13T10:53:18.595Z,17.39
2022-11-13T10:56:12.223Z,17.60
2022-11-13T10:59:11.889Z,17.87
2022-11-13T11:02:08.151Z,17.85
2022-11-13T11:05:06.760Z,17.85
2022-11-13T11:07:56.156Z,17.87
2022-11-13T11:11:01.669Z,17.26
2022-11-13T11:13:48.325Z,17.41
2022-11-13T11:16:33.885Z,17.17
2022-11-13T11:19:20.325Z,17.43
2022-11-13T11:22:09.929Z,17.31
2022-11-13T11:24:56.684Z,16.96
2022-11-13T11:27:42.683Z,16.73
2022-11-13T11:30:29.897Z,17.11
2022-11-13T11:33:17.277Z,17.10
2022-11-13T11:36:06.108Z,17.32
2022-11-13T11:38:56.169Z,17.36
2022-11-13T11:41:46.731Z,16.69
2022-11-13T11:44:51.599Z,17.20
2022-11-13T11:47:37.180Z,16.81
2022-11-13T11:50:43.265Z,17.21
2022-11-13T11:53:34.920Z,17.13
2022-11-13T11:56:23.521Z,17.15
2022-11-13T11:59:12.155Z,16.87
2022-11-13T12:01:57.603Z,16.72
2022-11-13T12:04:58.586Z,17.22
2022-11-13T12:07:47.900Z,16.72
2022-11-13T12:10:36.526Z,16.67
2022-11-13T12:13:28.217Z,16.97
2022-11-13T12:16:25.256Z,16.93
2022-11-13T12:19:15.833Z,16.51
2022-11-13T12:22:17.126Z,17.23
2022-11-13T12:25:05.627Z,16.79
2022-11-13T12:27:56.711Z,15.88
2022-11-13T12:31:01.971Z,16.71
2022-11-13T12:33:51.307Z,16.71
2022-11-13T12:36:37.170Z,15.35
2022-11-13T12:39:38.256Z,16.04
2022-11-13T12:42:29.742Z,15.93
2022-11-13T12:45:30.564Z,15.75
2022-11-13T12:48:15.993Z,15.34
2022-11-13T12:51:03.611Z,14.97
2022-11-13T12:53:50.155Z,15.19
2022-11-13T12:56:35.922Z,14.99
2022-11-13T12:59:31.618Z,15.10
2022-11-13T13:02:21.518Z,14.90
2022-11-13T13:05:22.434Z,15.04
2022-11-13T13:08:11.892Z,14.97
2022-11-13T13:11:05.029Z,14.73
2022-11-13T13:14:04.404Z,15.56
2022-11-13T13:16:50.306Z,14.19
2022-11-13T13:19:35.999Z,15.17
2022-11-13T13:22:26.542Z,15.43
2022-11-13T13:25:26.943Z,15.52
2022-11-13T13:28:19.612Z,14.98
2022-11-13T13:31:07.776Z,15.31
2022-11-13T13:34:15.940Z,15.69
2022-11-13T13:37:16.986Z,15.42
2022-11-13T13:40:21.198Z,14.84
2022-11-13T13:43:09.494Z,15.26
2022-11-13T13:46:13.762Z,14.45
2022-11-13T13:49:02.646Z,15.35
2022-11-13T13:51:49.492Z,14.94
2022-11-13T13:54:35.228Z,15.50
2022-11-13T13:57:21.980Z,15.54
2022-11-13T14:00:14.238Z,15.60
2022-11-13T14:02:59.786Z,15.38
2022-11-13T14:05:45.510Z,15.58
2022-11-13T14:08:31.210Z,15.46
2022-11-13T14:11:21.630Z,15.45
2022-11-13T14:14:08.145Z,15.29
2022-11-13T14:16:55.119Z,15.65
2022-11-13T14:19:40.610Z,15.58
2022-11-13T14:22:26.481Z,15.66
2022-11-13T14:25:21.269Z,15.20
2022-11-13T14:28:12.532Z,14.87
2022-11-13T14:31:02.339Z,16.01
2022-11-13T14:33:48.751Z,16.21
2022-11-13T14:36:34.768Z,15.95
2022-11-13T14:39:22.261Z,16.37
2022-11-13T14:42:08.135Z,16.39
2022-11-13T14:44:53.993Z,16.54
2022-11-13T14:47:39.616Z,16.48
2022-11-13T14:50:27.271Z,16.47
2022-11-13T14:53:12.956Z,16.33
2022-11-13T14:56:01.490Z,16.26
2022-11-13T14:58:47.483Z,16.59
2022-11-13T15:01:33.362Z,16.86
2022-11-13T15:04:19.295Z,16.59
2022-11-13T15:07:18.902Z,16.79
2022-11-13T15:10:05.364Z,16.31
2022-11-13T15:12:51.275Z,16.34
2022-11-13T15:15:36.891Z,15.95
2022-11-13T15:18:22.973Z,16.45
2022-11-13T15:21:08.831Z,16.23
2022-11-13T15:23:54.817Z,16.45
2022-11-13T15:26:40.615Z,16.46
2022-11-13T15:29:26.258Z,16.39
2022-11-13T15:32:15.106Z,16.17
2022-11-13T15:35:00.841Z,15.35
2022-11-13T15:37:46.548Z,16.26
2022-11-13T15:40:32.243Z,16.11
2022-11-13T15:43:19.247Z,15.44
2022-11-13T15:46:05.109Z,15.78
2022-11-13T15:48:50.900Z,15.14
2022-11-13T15:51:37.599Z,15.71
2022-11-13T15:54:30.461Z,15.91
2022-11-13T15:57:20.752Z,16.11
2022-11-13T16:00:09.976Z,16.15
2022-11-13T16:02:56.534Z,16.28
2022-11-13T16:05:42.436Z,16.23
2022-11-13T16:08:28.478Z,16.06
2022-11-13T16:11:17.517Z,16.02
2022-11-13T16:14:03.508Z,15.96
2022-11-13T16:16:50.657Z,15.87
2022-11-13T16:19:36.392Z,16.12
2022-11-13T16:22:23.266Z,16.20
2022-11-13T16:25:13.163Z,16.09
2022-11-13T16:27:59.561Z,15.94
2022-11-13T16:30:45.921Z,16.05
2022-11-13T16:33:31.650Z,16.02
2022-11-13T16:36:23.929Z,15.84
2022-11-13T16:39:11.860Z,15.82
2022-11-13T16:41:57.777Z,15.89
2022-11-13T16:44:43.231Z,15.79
2022-11-13T16:47:29.126Z,15.75
2022-11-13T16:50:19.319Z,15.58
2022-11-13T16:53:05.082Z,15.56
2022-11-13T16:55:50.945Z,15.46
2022-11-13T16:58:36.497Z,15.57
2022-11-13T17:01:22.634Z,15.57
2022-11-13T17:04:09.553Z,15.50
2022-11-13T17:06:57.737Z,15.21
2022-11-13T17:09:44.574Z,15.40
2022-11-13T17:12:30.516Z,15.43
2022-11-13T17:15:16.215Z,15.17
2022-11-13T17:18:02.465Z,15.24
2022-11-13T17:20:51.079Z,15.32
2022-11-13T17:23:37.025Z,15.22
2022-11-13T17:26:23.005Z,15.30
2022-11-13T17:29:08.997Z,15.30
2022-11-13T17:31:54.545Z,15.24
2022-11-13T17:34:40.616Z,15.02
2022-11-13T17:37:26.441Z,14.90
2022-11-13T17:40:12.262Z,14.73
2022-11-13T17:42:57.914Z,14.68
2022-11-13T17:45:43.986Z,14.87
2022-11-13T17:48:33.426Z,14.88
2022-11-13T17:51:19.203Z,14.71
2022-11-13T17:54:04.918Z,14.81
2022-11-13T17:56:50.364Z,14.79
2022-11-13T17:59:36.009Z,14.77
2022-11-13T18:02:21.749Z,14.55
2022-11-13T18:05:09.306Z,14.28
2022-11-13T18:07:55.258Z,14.21
2022-11-13T18:10:41.533Z,14.10
2022-11-13T18:13:27.663Z,14.07
2022-11-13T18:16:24.497Z,13.99
2022-11-13T18:19:10.831Z,14.03
2022-11-13T18:21:57.959Z,13.33
2022-11-13T18:24:44.004Z,13.38
2022-11-13T18:27:30.187Z,13.78
2022-11-13T18:30:17.857Z,13.53
2022-11-13T18:33:03.595Z,12.14
2022-11-13T18:35:49.304Z,12.63
2022-11-13T18:38:35.452Z,13.63
2022-11-13T18:41:22.268Z,13.64
2022-11-13T18:44:08.932Z,13.94
2022-11-13T18:46:55.153Z,13.61
2022-11-13T18:49:41.461Z,13.78
2022-11-13T18:52:27.667Z,13.89
2022-11-13T18:55:14.746Z,13.99
2022-11-13T18:58:00.839Z,13.86
2022-11-13T19:00:46.788Z,13.91
2022-11-13T19:03:33.208Z,13.88
2022-11-13T19:06:19.968Z,13.82
2022-11-13T19:09:07.327Z,13.73
2022-11-13T19:11:53.785Z,13.58
2022-11-13T19:14:39.538Z,13.69
2022-11-13T19:17:25.381Z,13.62
2022-11-13T19:20:11.215Z,13.55
2022-11-13T19:22:57.493Z,13.41
2022-11-13T19:25:43.131Z,13.48
2022-11-13T19:28:29.420Z,13.43
2022-11-13T19:31:17.300Z,13.30
2022-11-13T19:34:04.692Z,13.17
2022-11-13T19:36:51.913Z,13.13
2022-11-13T19:39:37.920Z,12.95
2022-11-13T19:42:23.555Z,12.87
2022-11-13T19:45:09.517Z,13.04
2022-11-13T19:47:55.557Z,12.96
2022-11-13T19:50:43.797Z,12.96
2022-11-13T19:53:29.738Z,13.03
2022-11-13T19:56:18.415Z,13.07
2022-11-13T19:59:04.717Z,12.96
2022-11-13T20:01:50.570Z,12.91
2022-11-13T20:04:36.484Z,13.00
2022-11-13T20:07:22.473Z,13.03
2022-11-13T20:10:08.816Z,13.07
2022-11-13T20:12:54.999Z,12.77
2022-11-13T20:15:40.795Z,12.92
2022-11-13T20:18:26.581Z,12.98
2022-11-13T20:21:13.075Z,12.91
2022-11-13T20:23:59.456Z,12.93
2022-11-13T20:26:45.211Z,12.76
2022-11-13T20:29:32.334Z,12.75
2022-11-13T20:32:18.191Z,12.80
2022-11-13T20:35:04.094Z,12.66
2022-11-13T20:37:50.023Z,12.59
2022-11-13T20:40:35.651Z,12.32
2022-11-13T20:43:21.371Z,12.32
2022-11-13T20:46:10.648Z,12.19
2022-11-13T20:48:56.781Z,12.29
2022-11-13T20:51:43.437Z,12.30
2022-11-13T20:54:29.263Z,12.27
2022-11-13T20:57:17.147Z,12.34
2022-11-13T21:00:03.702Z,12.28
2022-11-13T21:02:49.102Z,12.12
2022-11-13T21:05:34.945Z,12.32
2022-11-13T21:08:20.645Z,12.21
2022-11-13T21:11:06.665Z,12.37
2022-11-13T21:13:53.507Z,12.54
2022-11-13T21:16:39.115Z,12.52
2022-11-13T21:19:24.931Z,12.45
2022-11-13T21:22:10.522Z,12.45
2022-11-13T21:24:55.984Z,12.54
2022-11-13T21:27:42.133Z,12.51
2022-11-13T21:30:28.078Z,12.19
2022-11-13T21:33:13.640Z,12.22
2022-11-13T21:36:03.248Z,12.29
2022-11-13T21:38:49.472Z,12.43
2022-11-13T21:41:35.149Z,12.23
2022-11-13T21:44:21.116Z,11.94
2022-11-13T21:47:06.916Z,12.23
2022-11-13T21:49:52.496Z,12.24
2022-11-13T21:52:38.236Z,12.07
2022-11-13T21:55:23.879Z,12.11
2022-11-13T21:58:09.651Z,12.03
2022-11-13T22:00:55.424Z,12.16
2022-11-13T22:03:41.296Z,11.99
2022-11-13T22:06:30.792Z,11.62
2022-11-13T22:09:17.246Z,11.98
2022-11-13T22:12:02.911Z,12.17
2022-11-13T22:14:48.812Z,11.90
2022-11-13T22:17:34.538Z,11.89
2022-11-13T22:20:20.721Z,12.08
2022-11-13T22:23:06.891Z,11.30
2022-11-13T22:25:57.900Z,11.70
2022-11-13T22:28:44.413Z,11.75
2022-11-13T22:31:30.842Z,11.61
2022-11-13T22:34:16.527Z,11.90
2022-11-13T22:37:02.213Z,11.92
2022-11-13T22:39:48.226Z,12.00
2022-11-13T22:42:33.977Z,11.82
2022-11-13T22:45:23.882Z,11.31
2022-11-13T22:48:10.986Z,11.42
2022-11-13T22:50:56.998Z,10.98
2022-11-13T22:53:43.606Z,11.22
2022-11-13T22:56:31.382Z,11.06
2022-11-13T22:59:17.309Z,11.00
2022-11-13T23:02:03.068Z,10.65
2022-11-13T23:04:48.825Z,10.77
2022-11-13T23:07:34.560Z,11.02
2022-11-13T23:10:20.364Z,11.12
2022-11-13T23:13:06.893Z,11.22
2022-11-13T23:15:52.349Z,10.92
2022-11-13T23:18:38.393Z,11.24
2022-11-13T23:21:25.276Z,11.14
2022-11-13T23:24:11.440Z,11.41
2022-11-13T23:26:57.410Z,11.41
2022-11-13T23:29:48.770Z,11.29
2022-11-13T23:32:35.852Z,11.10
2022-11-13T23:35:21.231Z,11.05
2022-11-13T23:38:06.894Z,11.32
2022-11-13T23:40:53.079Z,10.79
2022-11-13T23:46:44.649Z,10.99
2022-11-13T23:49:30.432Z,10.83
2022-11-13T23:52:16.019Z,10.54
2022-11-13T23:55:02.156Z,11.30
2022-11-13T23:57:47.641Z,11.17
